sensor_id;sensor_type;location;lat;lon;timestamp;noise_LAeq;noise_LA_min;noise_LA_max;noise_LA01;noise_LA95
58197;Laerm;43999;51.660;5.616;2023-07-31T00:00:54;49.53;48.20;51.39;;
58197;Laerm;43999;51.660;5.616;2023-07-31T00:03:22;49.53;48.16;51.40;;
58197;Laerm;43999;51.660;5.616;2023-07-31T00:05:49;49.53;48.12;51.30;;
58197;Laerm;43999;51.660;5.616;2023-07-31T00:08:17;49.53;48.36;51.28;;
58197;Laerm;43999;51.660;5.616;2023-07-31T00:10:44;49.53;48.31;51.19;;
58197;Laerm;43999;51.660;5.616;2023-07-31T00:13:11;49.52;48.31;51.20;;
58197;Laerm;43999;51.660;5.616;2023-07-31T00:15:39;49.51;48.20;51.06;;
58197;Laerm;43999;51.660;5.616;2023-07-31T00:18:06;49.53;48.07;51.03;;
58197;Laerm;43999;51.660;5.616;2023-07-31T00:20:34;49.53;48.28;51.12;;
58197;Laerm;43999;51.660;5.616;2023-07-31T00:23:01;49.53;48.25;51.06;;
58197;Laerm;43999;51.660;5.616;2023-07-31T00:25:29;49.53;48.31;51.17;;
58197;Laerm;43999;51.660;5.616;2023-07-31T00:27:56;49.54;48.23;51.22;;
58197;Laerm;43999;51.660;5.616;2023-07-31T00:30:23;49.52;48.25;51.46;;
58197;Laerm;43999;51.660;5.616;2023-07-31T00:32:53;49.53;48.29;51.28;;
58197;Laerm;43999;51.660;5.616;2023-07-31T00:35:21;49.53;48.18;51.26;;
58197;Laerm;43999;51.660;5.616;2023-07-31T00:37:48;49.53;48.10;51.16;;
58197;Laerm;43999;51.660;5.616;2023-07-31T00:40:16;49.52;48.21;51.28;;
58197;Laerm;43999;51.660;5.616;2023-07-31T00:42:44;49.52;48.03;51.28;;
58197;Laerm;43999;51.660;5.616;2023-07-31T00:45:11;49.54;48.23;51.05;;
58197;Laerm;43999;51.660;5.616;2023-07-31T00:47:39;49.54;48.31;51.17;;
58197;Laerm;43999;51.660;5.616;2023-07-31T00:50:07;49.54;48.31;51.19;;
58197;Laerm;43999;51.660;5.616;2023-07-31T00:52:36;49.53;48.29;51.03;;
58197;Laerm;43999;51.660;5.616;2023-07-31T00:55:05;49.53;47.93;51.44;;
58197;Laerm;43999;51.660;5.616;2023-07-31T00:57:34;49.54;48.32;51.56;;
58197;Laerm;43999;51.660;5.616;2023-07-31T01:00:05;49.53;48.20;51.03;;
58197;Laerm;43999;51.660;5.616;2023-07-31T01:02:35;49.54;48.28;51.31;;
58197;Laerm;43999;51.660;5.616;2023-07-31T01:05:05;49.53;48.21;51.18;;
58197;Laerm;43999;51.660;5.616;2023-07-31T01:07:52;49.55;48.03;51.12;;
58197;Laerm;43999;51.660;5.616;2023-07-31T01:10:36;49.54;48.34;51.28;;
58197;Laerm;43999;51.660;5.616;2023-07-31T01:13:05;49.53;48.26;51.30;;
58197;Laerm;43999;51.660;5.616;2023-07-31T01:15:33;49.54;48.34;51.35;;
58197;Laerm;43999;51.660;5.616;2023-07-31T01:18:03;49.53;47.70;51.03;;
58197;Laerm;43999;51.660;5.616;2023-07-31T01:20:33;49.53;48.08;51.55;;
58197;Laerm;43999;51.660;5.616;2023-07-31T01:26:34;49.52;48.34;51.09;;
58197;Laerm;43999;51.660;5.616;2023-07-31T01:29:38;49.54;48.28;51.01;;
58197;Laerm;43999;51.660;5.616;2023-07-31T01:32:11;49.53;48.32;51.32;;
58197;Laerm;43999;51.660;5.616;2023-07-31T01:34:41;49.53;48.26;51.38;;
58197;Laerm;43999;51.660;5.616;2023-07-31T01:37:10;49.55;48.03;51.13;;
58197;Laerm;43999;51.660;5.616;2023-07-31T01:39:37;49.54;48.29;51.25;;
58197;Laerm;43999;51.660;5.616;2023-07-31T01:42:05;49.53;48.13;51.17;;
58197;Laerm;43999;51.660;5.616;2023-07-31T01:44:32;49.53;48.34;51.20;;
58197;Laerm;43999;51.660;5.616;2023-07-31T01:47:00;49.53;48.32;51.17;;
58197;Laerm;43999;51.660;5.616;2023-07-31T01:49:27;49.54;48.20;51.36;;
58197;Laerm;43999;51.660;5.616;2023-07-31T01:51:55;49.54;48.32;51.32;;
58197;Laerm;43999;51.660;5.616;2023-07-31T01:54:22;49.55;48.31;51.06;;
58197;Laerm;43999;51.660;5.616;2023-07-31T01:56:50;49.55;48.20;51.06;;
58197;Laerm;43999;51.660;5.616;2023-07-31T01:59:17;49.54;48.23;51.26;;
58197;Laerm;43999;51.660;5.616;2023-07-31T02:01:45;49.54;48.29;51.30;;
58197;Laerm;43999;51.660;5.616;2023-07-31T02:04:12;49.54;48.13;51.12;;
58197;Laerm;43999;51.660;5.616;2023-07-31T02:06:39;49.54;48.26;51.16;;
58197;Laerm;43999;51.660;5.616;2023-07-31T02:09:08;49.55;48.23;51.34;;
58197;Laerm;43999;51.660;5.616;2023-07-31T02:11:35;49.54;48.29;50.92;;
58197;Laerm;43999;51.660;5.616;2023-07-31T02:14:03;49.55;48.18;51.55;;
58197;Laerm;43999;51.660;5.616;2023-07-31T02:16:30;49.54;48.10;51.14;;
58197;Laerm;43999;51.660;5.616;2023-07-31T02:18:58;49.55;48.26;51.26;;
58197;Laerm;43999;51.660;5.616;2023-07-31T02:21:25;49.55;48.21;51.06;;
58197;Laerm;43999;51.660;5.616;2023-07-31T02:23:53;49.53;48.25;51.30;;
58197;Laerm;43999;51.660;5.616;2023-07-31T02:26:20;49.53;48.16;51.40;;
58197;Laerm;43999;51.660;5.616;2023-07-31T02:28:48;49.54;48.29;51.61;;
58197;Laerm;43999;51.660;5.616;2023-07-31T02:31:15;49.54;48.28;50.99;;
58197;Laerm;43999;51.660;5.616;2023-07-31T02:33:43;49.53;48.18;51.07;;
58197;Laerm;43999;51.660;5.616;2023-07-31T02:36:10;49.53;48.21;51.23;;
58197;Laerm;43999;51.660;5.616;2023-07-31T02:38:37;49.54;48.34;51.15;;
58197;Laerm;43999;51.660;5.616;2023-07-31T02:41:06;49.54;48.31;51.42;;
58197;Laerm;43999;51.660;5.616;2023-07-31T02:43:33;49.55;48.13;51.58;;
58197;Laerm;43999;51.660;5.616;2023-07-31T02:46:01;49.53;48.25;51.44;;
58197;Laerm;43999;51.660;5.616;2023-07-31T02:48:28;49.54;48.34;51.06;;
58197;Laerm;43999;51.660;5.616;2023-07-31T02:50:56;49.53;48.26;51.20;;
58197;Laerm;43999;51.660;5.616;2023-07-31T02:53:23;49.55;48.25;51.55;;
58197;Laerm;43999;51.660;5.616;2023-07-31T02:55:51;49.56;48.31;51.34;;
58197;Laerm;43999;51.660;5.616;2023-07-31T02:58:18;49.54;48.08;51.21;;
58197;Laerm;43999;51.660;5.616;2023-07-31T03:00:46;49.53;48.18;51.13;;
58197;Laerm;43999;51.660;5.616;2023-07-31T03:03:13;49.54;48.28;51.37;;
58197;Laerm;43999;51.660;5.616;2023-07-31T03:05:41;49.53;48.34;51.00;;
58197;Laerm;43999;51.660;5.616;2023-07-31T03:08:08;49.54;48.23;51.56;;
58197;Laerm;43999;51.660;5.616;2023-07-31T03:10:35;49.55;48.29;51.22;;
58197;Laerm;43999;51.660;5.616;2023-07-31T03:13:04;49.54;48.16;51.34;;
58197;Laerm;43999;51.660;5.616;2023-07-31T03:15:32;49.54;48.42;51.10;;
58197;Laerm;43999;51.660;5.616;2023-07-31T03:17:59;49.53;48.25;51.02;;
58197;Laerm;43999;51.660;5.616;2023-07-31T03:20:27;49.53;48.23;51.20;;
58197;Laerm;43999;51.660;5.616;2023-07-31T03:22:54;49.54;48.15;51.36;;
58197;Laerm;43999;51.660;5.616;2023-07-31T03:25:22;49.54;48.21;51.25;;
58197;Laerm;43999;51.660;5.616;2023-07-31T03:27:50;49.53;48.31;51.11;;
58197;Laerm;43999;51.660;5.616;2023-07-31T03:30:18;49.54;48.13;51.08;;
58197;Laerm;43999;51.660;5.616;2023-07-31T03:32:45;49.53;48.25;51.59;;
58197;Laerm;43999;51.660;5.616;2023-07-31T03:35:13;49.55;48.10;51.21;;
58197;Laerm;43999;51.660;5.616;2023-07-31T03:37:40;49.55;48.31;51.36;;
58197;Laerm;43999;51.660;5.616;2023-07-31T03:40:09;49.55;48.32;51.40;;
58197;Laerm;43999;51.660;5.616;2023-07-31T03:42:36;49.54;48.28;51.22;;
58197;Laerm;43999;51.660;5.616;2023-07-31T03:45:05;49.55;48.10;51.36;;
58197;Laerm;43999;51.660;5.616;2023-07-31T03:47:33;49.53;48.32;51.41;;
58197;Laerm;43999;51.660;5.616;2023-07-31T03:50:01;49.55;48.26;51.20;;
58197;Laerm;43999;51.660;5.616;2023-07-31T03:52:29;49.54;48.28;51.47;;
58197;Laerm;43999;51.660;5.616;2023-07-31T03:54:57;49.54;48.20;51.38;;
58197;Laerm;43999;51.660;5.616;2023-07-31T03:57:24;49.54;48.39;51.30;;
58197;Laerm;43999;51.660;5.616;2023-07-31T03:59:51;49.54;48.16;51.63;;
58197;Laerm;43999;51.660;5.616;2023-07-31T04:02:19;49.54;48.20;51.24;;
58197;Laerm;43999;51.660;5.616;2023-07-31T04:04:46;49.54;48.42;51.12;;
58197;Laerm;43999;51.660;5.616;2023-07-31T04:07:13;49.53;48.34;51.42;;
58197;Laerm;43999;51.660;5.616;2023-07-31T04:09:41;49.53;48.25;51.19;;
58197;Laerm;43999;51.660;5.616;2023-07-31T04:12:08;49.54;48.20;51.04;;
58197;Laerm;43999;51.660;5.616;2023-07-31T04:14:36;49.54;48.20;51.13;;
58197;Laerm;43999;51.660;5.616;2023-07-31T04:17:04;49.53;48.29;51.56;;
58197;Laerm;43999;51.660;5.616;2023-07-31T04:19:31;49.53;48.18;51.03;;
58197;Laerm;43999;51.660;5.616;2023-07-31T04:21:59;49.53;48.25;51.62;;
58197;Laerm;43999;51.660;5.616;2023-07-31T04:24:26;49.55;48.36;51.56;;
58197;Laerm;43999;51.660;5.616;2023-07-31T04:26:53;49.54;48.31;51.19;;
58197;Laerm;43999;51.660;5.616;2023-07-31T04:29:21;49.55;48.29;51.27;;
58197;Laerm;43999;51.660;5.616;2023-07-31T04:31:48;49.54;48.37;51.43;;
58197;Laerm;43999;51.660;5.616;2023-07-31T04:34:16;49.55;48.16;50.95;;
58197;Laerm;43999;51.660;5.616;2023-07-31T04:36:43;49.55;48.39;51.21;;
58197;Laerm;43999;51.660;5.616;2023-07-31T04:39:11;49.55;48.10;50.98;;
58197;Laerm;43999;51.660;5.616;2023-07-31T04:41:38;49.54;48.34;51.30;;
58197;Laerm;43999;51.660;5.616;2023-07-31T04:44:05;49.54;48.36;51.48;;
58197;Laerm;43999;51.660;5.616;2023-07-31T04:46:33;49.55;48.16;51.13;;
58197;Laerm;43999;51.660;5.616;2023-07-31T04:49:00;49.55;48.21;51.30;;
58197;Laerm;43999;51.660;5.616;2023-07-31T04:51:28;49.55;48.37;51.37;;
58197;Laerm;43999;51.660;5.616;2023-07-31T04:53:56;49.55;48.20;51.17;;
58197;Laerm;43999;51.660;5.616;2023-07-31T04:56:24;49.54;48.37;51.01;;
58197;Laerm;43999;51.660;5.616;2023-07-31T04:58:51;49.56;48.31;51.48;;
58197;Laerm;43999;51.660;5.616;2023-07-31T05:01:21;49.55;48.28;51.36;;
58197;Laerm;43999;51.660;5.616;2023-07-31T05:03:49;49.55;48.34;51.09;;
58197;Laerm;43999;51.660;5.616;2023-07-31T05:06:16;49.54;48.07;51.15;;
58197;Laerm;43999;51.660;5.616;2023-07-31T05:08:44;49.54;48.34;51.26;;
58197;Laerm;43999;51.660;5.616;2023-07-31T05:11:12;49.54;48.29;50.94;;
58197;Laerm;43999;51.660;5.616;2023-07-31T05:13:40;49.54;48.31;51.17;;
58197;Laerm;43999;51.660;5.616;2023-07-31T05:16:07;49.53;48.18;51.18;;
58197;Laerm;43999;51.660;5.616;2023-07-31T05:18:34;49.53;48.23;51.42;;
58197;Laerm;43999;51.660;5.616;2023-07-31T05:21:02;49.54;48.20;51.40;;
58197;Laerm;43999;51.660;5.616;2023-07-31T05:23:29;49.55;48.16;51.29;;
58197;Laerm;43999;51.660;5.616;2023-07-31T05:26:06;49.53;48.05;51.05;;
58197;Laerm;43999;51.660;5.616;2023-07-31T05:28:35;49.54;48.31;51.47;;
58197;Laerm;43999;51.660;5.616;2023-07-31T05:31:04;49.51;48.18;51.21;;
58197;Laerm;43999;51.660;5.616;2023-07-31T05:33:33;49.52;48.12;51.17;;
58197;Laerm;43999;51.660;5.616;2023-07-31T05:36:01;49.53;48.21;51.29;;
58197;Laerm;43999;51.660;5.616;2023-07-31T05:38:28;49.53;48.20;51.22;;
58197;Laerm;43999;51.660;5.616;2023-07-31T05:40:56;49.51;48.31;50.94;;
58197;Laerm;43999;51.660;5.616;2023-07-31T05:43:26;49.52;48.16;51.36;;
58197;Laerm;43999;51.660;5.616;2023-07-31T05:45:53;49.53;48.39;51.45;;
58197;Laerm;43999;51.660;5.616;2023-07-31T05:48:21;49.54;48.29;51.17;;
58197;Laerm;43999;51.660;5.616;2023-07-31T05:50:49;49.53;48.15;51.68;;
58197;Laerm;43999;51.660;5.616;2023-07-31T05:53:16;49.52;48.13;51.16;;
58197;Laerm;43999;51.660;5.616;2023-07-31T05:55:43;49.52;48.28;51.10;;
58197;Laerm;43999;51.660;5.616;2023-07-31T05:58:11;49.53;48.34;51.08;;
58197;Laerm;43999;51.660;5.616;2023-07-31T06:00:38;49.51;48.26;51.22;;
58197;Laerm;43999;51.660;5.616;2023-07-31T06:03:05;49.52;48.13;51.24;;
58197;Laerm;43999;51.660;5.616;2023-07-31T06:05:33;49.53;48.29;51.37;;
58197;Laerm;43999;51.660;5.616;2023-07-31T06:08:01;49.50;48.34;51.33;;
58197;Laerm;43999;51.660;5.616;2023-07-31T06:10:28;49.52;48.28;51.25;;
58197;Laerm;43999;51.660;5.616;2023-07-31T06:12:56;49.52;48.34;51.37;;
58197;Laerm;43999;51.660;5.616;2023-07-31T06:15:24;49.51;48.31;51.37;;
58197;Laerm;43999;51.660;5.616;2023-07-31T06:17:51;49.52;48.21;51.10;;
58197;Laerm;43999;51.660;5.616;2023-07-31T06:20:20;49.52;48.12;51.12;;
58197;Laerm;43999;51.660;5.616;2023-07-31T06:22:47;49.51;48.29;51.21;;
58197;Laerm;43999;51.660;5.616;2023-07-31T06:25:14;49.53;48.32;51.25;;
58197;Laerm;43999;51.660;5.616;2023-07-31T06:27:42;49.52;48.45;51.49;;
58197;Laerm;43999;51.660;5.616;2023-07-31T06:30:10;49.53;48.40;51.19;;
58197;Laerm;43999;51.660;5.616;2023-07-31T06:32:38;49.53;48.29;51.22;;
58197;Laerm;43999;51.660;5.616;2023-07-31T06:35:07;49.53;48.37;51.30;;
58197;Laerm;43999;51.660;5.616;2023-07-31T06:37:35;49.53;48.16;51.39;;
58197;Laerm;43999;51.660;5.616;2023-07-31T06:40:05;49.53;48.25;51.37;;
58197;Laerm;43999;51.660;5.616;2023-07-31T06:42:35;49.52;48.23;51.09;;
58197;Laerm;43999;51.660;5.616;2023-07-31T06:45:03;49.53;48.21;51.38;;
58197;Laerm;43999;51.660;5.616;2023-07-31T06:47:30;49.53;48.31;51.60;;
58197;Laerm;43999;51.660;5.616;2023-07-31T06:49:59;49.53;48.20;51.07;;
58197;Laerm;43999;51.660;5.616;2023-07-31T06:52:27;49.54;48.34;51.64;;
58197;Laerm;43999;51.660;5.616;2023-07-31T06:55:20;49.53;48.16;51.08;;
58197;Laerm;43999;51.660;5.616;2023-07-31T06:57:52;49.53;48.08;51.23;;
58197;Laerm;43999;51.660;5.616;2023-07-31T07:00:22;49.54;48.36;51.11;;
58197;Laerm;43999;51.660;5.616;2023-07-31T07:02:50;49.53;48.13;51.16;;
58197;Laerm;43999;51.660;5.616;2023-07-31T07:05:18;49.54;48.36;51.18;;
58197;Laerm;43999;51.660;5.616;2023-07-31T07:07:46;49.53;48.20;51.07;;
58197;Laerm;43999;51.660;5.616;2023-07-31T07:10:13;49.52;48.20;51.26;;
58197;Laerm;43999;51.660;5.616;2023-07-31T07:12:43;49.54;48.31;51.10;;
58197;Laerm;43999;51.660;5.616;2023-07-31T07:15:11;49.55;48.26;51.39;;
58197;Laerm;43999;51.660;5.616;2023-07-31T07:17:38;49.53;48.25;51.36;;
58197;Laerm;43999;51.660;5.616;2023-07-31T07:20:07;49.54;48.28;51.42;;
58197;Laerm;43999;51.660;5.616;2023-07-31T07:22:35;49.52;48.08;51.42;;
58197;Laerm;43999;51.660;5.616;2023-07-31T07:25:05;49.54;48.20;51.03;;
58197;Laerm;43999;51.660;5.616;2023-07-31T07:27:34;49.53;48.37;51.50;;
58197;Laerm;43999;51.660;5.616;2023-07-31T07:30:02;49.55;48.10;51.32;;
58197;Laerm;43999;51.660;5.616;2023-07-31T07:32:30;49.54;48.21;51.33;;
58197;Laerm;43999;51.660;5.616;2023-07-31T07:34:57;49.54;48.20;51.42;;
58197;Laerm;43999;51.660;5.616;2023-07-31T07:37:25;49.54;48.29;51.02;;
58197;Laerm;43999;51.660;5.616;2023-07-31T07:39:52;49.53;48.26;51.22;;
58197;Laerm;43999;51.660;5.616;2023-07-31T07:42:19;49.53;48.23;51.39;;
58197;Laerm;43999;51.660;5.616;2023-07-31T07:44:47;49.55;48.15;51.14;;
58197;Laerm;43999;51.660;5.616;2023-07-31T07:47:14;49.54;48.23;51.67;;
58197;Laerm;43999;51.660;5.616;2023-07-31T07:49:42;49.54;48.20;51.24;;
58197;Laerm;43999;51.660;5.616;2023-07-31T07:52:15;49.53;48.25;51.25;;
58197;Laerm;43999;51.660;5.616;2023-07-31T07:54:42;49.54;48.10;51.75;;
58197;Laerm;43999;51.660;5.616;2023-07-31T07:57:09;49.53;48.23;51.35;;
58197;Laerm;43999;51.660;5.616;2023-07-31T07:59:37;49.54;48.20;51.26;;
58197;Laerm;43999;51.660;5.616;2023-07-31T08:02:05;49.52;48.21;51.27;;
58197;Laerm;43999;51.660;5.616;2023-07-31T08:04:32;49.53;48.23;51.22;;
58197;Laerm;43999;51.660;5.616;2023-07-31T08:06:59;49.54;48.26;51.63;;
58197;Laerm;43999;51.660;5.616;2023-07-31T08:09:27;49.54;48.32;51.26;;
58197;Laerm;43999;51.660;5.616;2023-07-31T08:11:54;49.53;48.00;51.07;;
58197;Laerm;43999;51.660;5.616;2023-07-31T08:14:24;49.53;48.37;51.18;;
58197;Laerm;43999;51.660;5.616;2023-07-31T08:16:51;49.53;48.34;51.36;;
58197;Laerm;43999;51.660;5.616;2023-07-31T08:19:19;49.53;48.23;51.46;;
58197;Laerm;43999;51.660;5.616;2023-07-31T08:21:47;49.53;48.28;51.71;;
58197;Laerm;43999;51.660;5.616;2023-07-31T08:24:14;49.54;48.21;51.25;;
58197;Laerm;43999;51.660;5.616;2023-07-31T08:26:42;49.54;48.13;51.13;;
58197;Laerm;43999;51.660;5.616;2023-07-31T08:29:09;49.54;48.15;51.08;;
58197;Laerm;43999;51.660;5.616;2023-07-31T08:31:37;49.54;48.15;51.53;;
58197;Laerm;43999;51.660;5.616;2023-07-31T08:34:04;49.55;48.31;51.20;;
58197;Laerm;43999;51.660;5.616;2023-07-31T08:36:32;49.55;48.28;51.56;;
58197;Laerm;43999;51.660;5.616;2023-07-31T08:38:59;49.53;48.40;51.03;;
58197;Laerm;43999;51.660;5.616;2023-07-31T08:41:27;49.54;48.18;51.14;;
58197;Laerm;43999;51.660;5.616;2023-07-31T08:43:56;49.53;48.26;51.30;;
58197;Laerm;43999;51.660;5.616;2023-07-31T08:46:25;49.54;48.36;51.26;;
58197;Laerm;43999;51.660;5.616;2023-07-31T08:49:00;49.54;48.25;51.55;;
58197;Laerm;43999;51.660;5.616;2023-07-31T08:51:33;49.54;48.29;51.23;;
58197;Laerm;43999;51.660;5.616;2023-07-31T08:54:01;49.54;48.32;51.12;;
58197;Laerm;43999;51.660;5.616;2023-07-31T08:56:32;49.54;48.40;51.32;;
58197;Laerm;43999;51.660;5.616;2023-07-31T08:59:03;49.54;48.31;51.15;;
58197;Laerm;43999;51.660;5.616;2023-07-31T09:01:41;49.53;48.29;51.45;;
58197;Laerm;43999;51.660;5.616;2023-07-31T09:04:12;49.53;48.13;51.17;;
58197;Laerm;43999;51.660;5.616;2023-07-31T09:06:42;49.54;48.36;51.60;;
58197;Laerm;43999;51.660;5.616;2023-07-31T09:09:10;49.53;48.26;51.15;;
58197;Laerm;43999;51.660;5.616;2023-07-31T09:11:38;49.54;48.45;51.23;;
58197;Laerm;43999;51.660;5.616;2023-07-31T09:14:08;49.54;48.16;51.03;;
58197;Laerm;43999;51.660;5.616;2023-07-31T09:16:51;49.55;48.31;51.23;;
58197;Laerm;43999;51.660;5.616;2023-07-31T09:19:33;49.55;48.36;51.33;;
58197;Laerm;43999;51.660;5.616;2023-07-31T09:22:01;49.53;48.18;51.08;;
58197;Laerm;43999;51.660;5.616;2023-07-31T09:24:33;49.55;48.28;50.96;;
58197;Laerm;43999;51.660;5.616;2023-07-31T09:27:02;49.54;48.15;51.10;;
58197;Laerm;43999;51.660;5.616;2023-07-31T09:29:29;49.55;47.83;51.33;;
58197;Laerm;43999;51.660;5.616;2023-07-31T09:31:57;49.54;48.42;51.27;;
58197;Laerm;43999;51.660;5.616;2023-07-31T09:34:37;49.54;48.23;51.39;;
58197;Laerm;43999;51.660;5.616;2023-07-31T09:37:06;49.55;48.28;51.29;;
58197;Laerm;43999;51.660;5.616;2023-07-31T09:39:47;49.55;48.23;51.63;;
58197;Laerm;43999;51.660;5.616;2023-07-31T09:42:26;49.54;48.37;51.29;;
58197;Laerm;43999;51.660;5.616;2023-07-31T09:44:54;49.55;48.29;51.55;;
58197;Laerm;43999;51.660;5.616;2023-07-31T09:47:25;49.54;48.36;51.28;;
58197;Laerm;43999;51.660;5.616;2023-07-31T09:49:53;49.55;48.39;51.31;;
58197;Laerm;43999;51.660;5.616;2023-07-31T09:52:21;49.56;48.18;51.44;;
58197;Laerm;43999;51.660;5.616;2023-07-31T09:54:49;49.57;48.39;51.16;;
58197;Laerm;43999;51.660;5.616;2023-07-31T09:57:17;49.55;48.40;51.18;;
58197;Laerm;43999;51.660;5.616;2023-07-31T09:59:48;49.56;47.96;51.19;;
58197;Laerm;43999;51.660;5.616;2023-07-31T10:02:22;49.55;48.29;51.26;;
58197;Laerm;43999;51.660;5.616;2023-07-31T10:04:51;49.57;48.32;51.33;;
58197;Laerm;43999;51.660;5.616;2023-07-31T10:07:25;49.58;48.23;51.36;;
58197;Laerm;43999;51.660;5.616;2023-07-31T10:10:00;49.57;48.29;51.23;;
58197;Laerm;43999;51.660;5.616;2023-07-31T10:12:34;49.56;48.45;51.17;;
58197;Laerm;43999;51.660;5.616;2023-07-31T10:15:05;49.58;48.28;51.17;;
58197;Laerm;43999;51.660;5.616;2023-07-31T10:17:36;49.56;48.31;51.26;;
58197;Laerm;43999;51.660;5.616;2023-07-31T10:20:07;49.56;48.34;51.25;;
58197;Laerm;43999;51.660;5.616;2023-07-31T10:22:37;49.61;48.31;51.30;;
58197;Laerm;43999;51.660;5.616;2023-07-31T10:25:15;49.57;48.21;51.04;;
58197;Laerm;43999;51.660;5.616;2023-07-31T10:27:47;49.58;48.43;52.00;;
58197;Laerm;43999;51.660;5.616;2023-07-31T10:30:22;49.59;48.34;51.13;;
58197;Laerm;43999;51.660;5.616;2023-07-31T10:32:52;49.58;48.40;51.47;;
58197;Laerm;43999;51.660;5.616;2023-07-31T10:35:23;49.59;48.31;51.05;;
58197;Laerm;43999;51.660;5.616;2023-07-31T10:37:52;49.59;48.20;51.26;;
58197;Laerm;43999;51.660;5.616;2023-07-31T10:40:27;49.60;48.29;51.37;;
58197;Laerm;43999;51.660;5.616;2023-07-31T10:42:57;49.59;48.34;51.05;;
58197;Laerm;43999;51.660;5.616;2023-07-31T10:45:41;49.59;48.36;51.44;;
58197;Laerm;43999;51.660;5.616;2023-07-31T10:48:16;49.60;48.25;51.32;;
58197;Laerm;43999;51.660;5.616;2023-07-31T10:50:55;49.60;48.28;51.32;;
58197;Laerm;43999;51.660;5.616;2023-07-31T10:53:28;49.61;48.29;51.56;;
58197;Laerm;43999;51.660;5.616;2023-07-31T10:56:02;49.59;48.31;51.59;;
58197;Laerm;43999;51.660;5.616;2023-07-31T10:58:32;49.60;48.45;51.47;;
58197;Laerm;43999;51.660;5.616;2023-07-31T11:01:04;49.60;48.42;51.22;;
58197;Laerm;43999;51.660;5.616;2023-07-31T11:03:50;49.61;48.42;51.07;;
58197;Laerm;43999;51.660;5.616;2023-07-31T11:06:20;49.61;47.95;51.63;;
58197;Laerm;43999;51.660;5.616;2023-07-31T11:08:50;49.60;48.40;51.13;;
58197;Laerm;43999;51.660;5.616;2023-07-31T11:11:20;49.61;47.88;51.32;;
58197;Laerm;43999;51.660;5.616;2023-07-31T11:13:53;49.60;48.05;51.41;;
58197;Laerm;43999;51.660;5.616;2023-07-31T11:16:24;49.61;48.45;51.24;;
58197;Laerm;43999;51.660;5.616;2023-07-31T11:18:53;49.61;48.22;51.22;;
58197;Laerm;43999;51.660;5.616;2023-07-31T11:21:25;49.61;48.26;51.22;;
58197;Laerm;43999;51.660;5.616;2023-07-31T11:23:57;49.61;48.29;51.20;;
58197;Laerm;43999;51.660;5.616;2023-07-31T11:26:28;49.62;48.43;51.50;;
58197;Laerm;43999;51.660;5.616;2023-07-31T11:28:56;49.62;48.34;51.53;;
58197;Laerm;43999;51.660;5.616;2023-07-31T11:31:23;49.62;48.32;51.23;;
58197;Laerm;43999;51.660;5.616;2023-07-31T11:33:50;49.63;47.88;51.23;;
58197;Laerm;43999;51.660;5.616;2023-07-31T11:36:20;49.63;48.37;51.44;;
58197;Laerm;43999;51.660;5.616;2023-07-31T11:38:48;49.64;48.29;51.13;;
58197;Laerm;43999;51.660;5.616;2023-07-31T11:41:17;49.64;48.34;51.33;;
58197;Laerm;43999;51.660;5.616;2023-07-31T11:43:46;49.63;48.37;51.41;;
58197;Laerm;43999;51.660;5.616;2023-07-31T11:46:15;49.63;48.45;51.51;;
58197;Laerm;43999;51.660;5.616;2023-07-31T11:48:43;49.62;48.18;51.12;;
58197;Laerm;43999;51.660;5.616;2023-07-31T11:51:14;49.62;48.28;51.11;;
58197;Laerm;43999;51.660;5.616;2023-07-31T11:53:51;49.62;48.36;52.03;;
58197;Laerm;43999;51.660;5.616;2023-07-31T11:56:21;49.61;48.18;51.31;;
58197;Laerm;43999;51.660;5.616;2023-07-31T11:58:59;49.62;48.25;51.61;;
58197;Laerm;43999;51.660;5.616;2023-07-31T12:01:31;49.61;48.21;51.36;;
58197;Laerm;43999;51.660;5.616;2023-07-31T12:03:59;49.61;48.34;51.37;;
58197;Laerm;43999;51.660;5.616;2023-07-31T12:06:37;49.64;48.36;51.54;;
58197;Laerm;43999;51.660;5.616;2023-07-31T12:09:05;49.63;48.26;51.37;;
58197;Laerm;43999;51.660;5.616;2023-07-31T12:11:48;49.64;48.12;51.40;;
58197;Laerm;43999;51.660;5.616;2023-07-31T12:14:24;49.63;48.21;51.10;;
58197;Laerm;43999;51.660;5.616;2023-07-31T12:17:06;49.63;48.37;51.11;;
58197;Laerm;43999;51.660;5.616;2023-07-31T12:19:34;49.64;48.37;51.20;;
58197;Laerm;43999;51.660;5.616;2023-07-31T12:22:14;49.63;48.21;51.22;;
58197;Laerm;43999;51.660;5.616;2023-07-31T12:24:44;49.63;48.52;51.49;;
58197;Laerm;43999;51.660;5.616;2023-07-31T12:27:15;49.63;48.26;51.38;;
58197;Laerm;43999;51.660;5.616;2023-07-31T12:29:45;49.63;48.29;51.35;;
58197;Laerm;43999;51.660;5.616;2023-07-31T12:32:24;49.63;48.31;51.40;;
58197;Laerm;43999;51.660;5.616;2023-07-31T12:34:52;49.63;48.42;51.49;;
58197;Laerm;43999;51.660;5.616;2023-07-31T12:37:21;49.63;48.28;51.21;;
58197;Laerm;43999;51.660;5.616;2023-07-31T12:39:49;49.63;48.42;51.44;;
58197;Laerm;43999;51.660;5.616;2023-07-31T12:42:18;49.63;48.25;51.09;;
58197;Laerm;43999;51.660;5.616;2023-07-31T12:44:45;49.63;48.31;51.25;;
58197;Laerm;43999;51.660;5.616;2023-07-31T12:47:13;49.63;48.28;51.36;;
58197;Laerm;43999;51.660;5.616;2023-07-31T12:49:42;49.64;48.34;51.11;;
58197;Laerm;43999;51.660;5.616;2023-07-31T12:52:09;49.64;48.28;51.33;;
58197;Laerm;43999;51.660;5.616;2023-07-31T12:54:37;49.63;48.18;51.53;;
58197;Laerm;43999;51.660;5.616;2023-07-31T12:57:04;49.63;48.28;51.25;;
58197;Laerm;43999;51.660;5.616;2023-07-31T12:59:32;49.61;48.21;51.47;;
58197;Laerm;43999;51.660;5.616;2023-07-31T13:02:01;49.63;48.55;51.33;;
58197;Laerm;43999;51.660;5.616;2023-07-31T13:04:28;49.61;48.26;51.50;;
58197;Laerm;43999;51.660;5.616;2023-07-31T13:06:55;49.62;48.18;51.36;;
58197;Laerm;43999;51.660;5.616;2023-07-31T13:09:23;49.61;48.39;51.26;;
58197;Laerm;43999;51.660;5.616;2023-07-31T13:11:50;49.61;48.36;51.03;;
58197;Laerm;43999;51.660;5.616;2023-07-31T13:14:18;49.60;48.23;51.21;;
58197;Laerm;43999;51.660;5.616;2023-07-31T13:16:45;49.61;48.07;51.52;;
58197;Laerm;43999;51.660;5.616;2023-07-31T13:19:13;49.61;48.45;51.23;;
58197;Laerm;43999;51.660;5.616;2023-07-31T13:21:40;49.62;48.31;51.86;;
58197;Laerm;43999;51.660;5.616;2023-07-31T13:24:07;49.63;48.15;51.17;;
58197;Laerm;43999;51.660;5.616;2023-07-31T13:26:36;49.62;48.39;53.39;;
58197;Laerm;43999;51.660;5.616;2023-07-31T13:29:04;49.61;48.36;51.26;;
58197;Laerm;43999;51.660;5.616;2023-07-31T13:31:32;49.60;48.28;51.02;;
58197;Laerm;43999;51.660;5.616;2023-07-31T13:33:59;49.62;48.15;51.22;;
58197;Laerm;43999;51.660;5.616;2023-07-31T13:36:27;49.63;48.39;51.34;;
58197;Laerm;43999;51.660;5.616;2023-07-31T13:38:54;49.63;48.34;51.22;;
58197;Laerm;43999;51.660;5.616;2023-07-31T13:41:21;49.61;48.32;51.17;;
58197;Laerm;43999;51.660;5.616;2023-07-31T13:43:49;49.62;48.40;51.22;;
58197;Laerm;43999;51.660;5.616;2023-07-31T13:46:17;49.63;48.07;51.47;;
58197;Laerm;43999;51.660;5.616;2023-07-31T13:48:44;49.62;48.28;51.35;;
58197;Laerm;43999;51.660;5.616;2023-07-31T13:51:11;49.62;48.25;51.86;;
58197;Laerm;43999;51.660;5.616;2023-07-31T13:53:39;49.62;48.34;51.33;;
58197;Laerm;43999;51.660;5.616;2023-07-31T13:56:07;49.64;48.31;51.53;;
58197;Laerm;43999;51.660;5.616;2023-07-31T13:58:34;49.62;48.12;51.30;;